sensor_id;sensor_type;location;lat;lon;timestamp;temperature;humidity
52451;DHT22;38366;53.176;6.540;2022-09-09T00:02:04;14.80;99.90
52451;DHT22;38366;53.176;6.540;2022-09-09T00:04:35;14.80;99.90
52451;DHT22;38366;53.176;6.540;2022-09-09T00:07:15;14.80;99.90
52451;DHT22;38366;53.176;6.540;2022-09-09T00:12:57;14.80;99.90
52451;DHT22;38366;53.176;6.540;2022-09-09T00:15:43;14.70;99.90
52451;DHT22;38366;53.176;6.540;2022-09-09T00:21:06;14.70;99.90
52451;DHT22;38366;53.176;6.540;2022-09-09T00:23:38;14.70;99.90
52451;DHT22;38366;53.176;6.540;2022-09-09T00:26:24;14.70;99.90
52451;DHT22;38366;53.176;6.540;2022-09-09T00:29:05;14.70;99.90
52451;DHT22;38366;53.176;6.540;2022-09-09T00:31:35;14.70;99.90
52451;DHT22;38366;53.176;6.540;2022-09-09T00:34:14;14.60;99.90
52451;DHT22;38366;53.176;6.540;2022-09-09T00:36:41;14.60;99.90
52451;DHT22;38366;53.176;6.540;2022-09-09T00:39:23;14.60;99.90
52451;DHT22;38366;53.176;6.540;2022-09-09T00:44:37;14.40;99.90
52451;DHT22;38366;53.176;6.540;2022-09-09T00:55:51;14.30;99.90
52451;DHT22;38366;53.176;6.540;2022-09-09T00:58:19;14.30;99.90
52451;DHT22;38366;53.176;6.540;2022-09-09T01:00:50;14.30;99.90
52451;DHT22;38366;53.176;6.540;2022-09-09T01:03:35;14.20;99.90
52451;DHT22;38366;53.176;6.540;2022-09-09T01:06:12;14.30;99.90
52451;DHT22;38366;53.176;6.540;2022-09-09T01:09:22;14.20;99.90
52451;DHT22;38366;53.176;6.540;2022-09-09T01:12:03;14.20;99.90
52451;DHT22;38366;53.176;6.540;2022-09-09T01:17:15;14.10;99.90
52451;DHT22;38366;53.176;6.540;2022-09-09T01:22:42;14.10;99.90
52451;DHT22;38366;53.176;6.540;2022-09-09T01:25:28;14.10;99.90
52451;DHT22;38366;53.176;6.540;2022-09-09T01:27:57;14.00;99.90
52451;DHT22;38366;53.176;6.540;2022-09-09T01:30:24;14.00;99.90
52451;DHT22;38366;53.176;6.540;2022-09-09T01:32:55;14.00;99.90
52451;DHT22;38366;53.176;6.540;2022-09-09T01:37:52;14.00;99.90
52451;DHT22;38366;53.176;6.540;2022-09-09T01:40:18;14.00;99.90
52451;DHT22;38366;53.176;6.540;2022-09-09T01:42:44;14.00;99.90
52451;DHT22;38366;53.176;6.540;2022-09-09T01:45:10;14.00;99.90
52451;DHT22;38366;53.176;6.540;2022-09-09T01:47:36;14.00;99.90
52451;DHT22;38366;53.176;6.540;2022-09-09T01:50:02;13.90;99.90
52451;DHT22;38366;53.176;6.540;2022-09-09T01:52:29;13.90;99.90
52451;DHT22;38366;53.176;6.540;2022-09-09T01:54:55;13.90;99.90
52451;DHT22;38366;53.176;6.540;2022-09-09T01:57:37;13.90;99.90
52451;DHT22;38366;53.176;6.540;2022-09-09T02:00:10;13.90;99.90
52451;DHT22;38366;53.176;6.540;2022-09-09T02:02:48;13.90;99.90
52451;DHT22;38366;53.176;6.540;2022-09-09T02:05:38;13.80;99.90
52451;DHT22;38366;53.176;6.540;2022-09-09T02:08:10;13.90;99.90
52451;DHT22;38366;53.176;6.540;2022-09-09T02:10:57;13.90;99.90
52451;DHT22;38366;53.176;6.540;2022-09-09T02:13:25;13.90;99.90
52451;DHT22;38366;53.176;6.540;2022-09-09T02:18:26;13.90;99.90
52451;DHT22;38366;53.176;6.540;2022-09-09T02:20:53;13.90;99.90
52451;DHT22;38366;53.176;6.540;2022-09-09T02:23:19;14.00;99.90
52451;DHT22;38366;53.176;6.540;2022-09-09T02:25:46;14.00;99.90
52451;DHT22;38366;53.176;6.540;2022-09-09T02:28:14;14.00;99.90
52451;DHT22;38366;53.176;6.540;2022-09-09T02:30:42;14.00;99.90
52451;DHT22;38366;53.176;6.540;2022-09-09T02:33:12;14.00;99.90
52451;DHT22;38366;53.176;6.540;2022-09-09T02:35:41;14.00;99.90
52451;DHT22;38366;53.176;6.540;2022-09-09T02:38:12;14.00;99.90
52451;DHT22;38366;53.176;6.540;2022-09-09T02:40:39;14.00;99.90
52451;DHT22;38366;53.176;6.540;2022-09-09T02:43:04;14.00;99.90
52451;DHT22;38366;53.176;6.540;2022-09-09T02:48:56;14.10;99.90
52451;DHT22;38366;53.176;6.540;2022-09-09T02:56:52;14.10;99.90
52451;DHT22;38366;53.176;6.540;2022-09-09T02:59:21;14.10;99.90
52451;DHT22;38366;53.176;6.540;2022-09-09T03:01:47;14.10;99.90
52451;DHT22;38366;53.176;6.540;2022-09-09T03:04:13;14.10;99.90
52451;DHT22;38366;53.176;6.540;2022-09-09T03:06:39;14.10;99.90
52451;DHT22;38366;53.176;6.540;2022-09-09T03:09:05;14.10;99.90
52451;DHT22;38366;53.176;6.540;2022-09-09T03:11:30;14.20;99.90
52451;DHT22;38366;53.176;6.540;2022-09-09T03:13:56;14.10;99.90
52451;DHT22;38366;53.176;6.540;2022-09-09T03:16:23;14.10;99.90
52451;DHT22;38366;53.176;6.540;2022-09-09T03:18:48;14.20;99.90
52451;DHT22;38366;53.176;6.540;2022-09-09T03:21:15;14.20;99.90
52451;DHT22;38366;53.176;6.540;2022-09-09T03:23:40;14.20;99.90
52451;DHT22;38366;53.176;6.540;2022-09-09T03:26:06;14.20;99.90
52451;DHT22;38366;53.176;6.540;2022-09-09T03:28:32;14.20;99.90
52451;DHT22;38366;53.176;6.540;2022-09-09T03:31:00;14.20;99.90
52451;DHT22;38366;53.176;6.540;2022-09-09T03:33:25;14.30;99.90
52451;DHT22;38366;53.176;6.540;2022-09-09T03:35:51;14.30;99.90
52451;DHT22;38366;53.176;6.540;2022-09-09T03:38:17;14.30;99.90
52451;DHT22;38366;53.176;6.540;2022-09-09T03:40:50;14.40;99.90
52451;DHT22;38366;53.176;6.540;2022-09-09T03:43:16;14.40;99.90
52451;DHT22;38366;53.176;6.540;2022-09-09T03:45:48;14.40;99.90
52451;DHT22;38366;53.176;6.540;2022-09-09T03:48:15;14.40;99.90
52451;DHT22;38366;53.176;6.540;2022-09-09T03:50:49;14.40;99.90
52451;DHT22;38366;53.176;6.540;2022-09-09T03:53:16;14.40;99.90
52451;DHT22;38366;53.176;6.540;2022-09-09T03:55:47;14.40;99.90
52451;DHT22;38366;53.176;6.540;2022-09-09T03:58:14;14.40;99.90
52451;DHT22;38366;53.176;6.540;2022-09-09T04:00:41;14.40;99.90
52451;DHT22;38366;53.176;6.540;2022-09-09T04:03:11;14.40;99.90
52451;DHT22;38366;53.176;6.540;2022-09-09T04:05:39;14.50;99.90
52451;DHT22;38366;53.176;6.540;2022-09-09T04:08:07;14.50;99.90
52451;DHT22;38366;53.176;6.540;2022-09-09T04:10:34;14.50;99.90
52451;DHT22;38366;53.176;6.540;2022-09-09T04:13:03;14.50;99.90
52451;DHT22;38366;53.176;6.540;2022-09-09T04:15:30;14.50;99.90
52451;DHT22;38366;53.176;6.540;2022-09-09T04:17:55;14.60;99.90
52451;DHT22;38366;53.176;6.540;2022-09-09T04:20:21;14.60;99.90
52451;DHT22;38366;53.176;6.540;2022-09-09T04:22:48;14.50;99.90
52451;DHT22;38366;53.176;6.540;2022-09-09T04:25:13;14.60;99.90
52451;DHT22;38366;53.176;6.540;2022-09-09T04:27:40;14.60;99.90
52451;DHT22;38366;53.176;6.540;2022-09-09T04:30:08;14.60;99.90
52451;DHT22;38366;53.176;6.540;2022-09-09T04:32:34;14.60;99.90
52451;DHT22;38366;53.176;6.540;2022-09-09T04:35:01;14.60;99.90
52451;DHT22;38366;53.176;6.540;2022-09-09T04:37:26;14.60;99.90
52451;DHT22;38366;53.176;6.540;2022-09-09T04:39:52;14.60;99.90
52451;DHT22;38366;53.176;6.540;2022-09-09T04:42:18;14.50;99.90
52451;DHT22;38366;53.176;6.540;2022-09-09T04:44:44;14.50;99.90
52451;DHT22;38366;53.176;6.540;2022-09-09T04:47:10;14.60;99.90
52451;DHT22;38366;53.176;6.540;2022-09-09T04:49:36;14.50;99.90
52451;DHT22;38366;53.176;6.540;2022-09-09T04:52:03;14.50;99.90
52451;DHT22;38366;53.176;6.540;2022-09-09T04:54:29;14.50;99.90
52451;DHT22;38366;53.176;6.540;2022-09-09T04:56:55;14.50;99.90
52451;DHT22;38366;53.176;6.540;2022-09-09T04:59:21;14.60;99.90
52451;DHT22;38366;53.176;6.540;2022-09-09T05:01:47;14.60;99.90
52451;DHT22;38366;53.176;6.540;2022-09-09T05:04:16;14.60;99.90
52451;DHT22;38366;53.176;6.540;2022-09-09T05:06:41;14.50;99.90
52451;DHT22;38366;53.176;6.540;2022-09-09T05:09:08;14.60;99.90
52451;DHT22;38366;53.176;6.540;2022-09-09T05:11:34;14.50;99.90
52451;DHT22;38366;53.176;6.540;2022-09-09T05:14:04;14.50;99.90
52451;DHT22;38366;53.176;6.540;2022-09-09T05:16:30;14.50;99.90
52451;DHT22;38366;53.176;6.540;2022-09-09T05:18:56;14.50;99.90
52451;DHT22;38366;53.176;6.540;2022-09-09T05:21:23;14.50;99.90
52451;DHT22;38366;53.176;6.540;2022-09-09T05:23:50;14.50;99.90
52451;DHT22;38366;53.176;6.540;2022-09-09T05:26:20;14.50;99.90
52451;DHT22;38366;53.176;6.540;2022-09-09T05:28:46;14.50;99.90
52451;DHT22;38366;53.176;6.540;2022-09-09T05:31:16;14.50;99.90
52451;DHT22;38366;53.176;6.540;2022-09-09T05:33:45;14.50;99.90
52451;DHT22;38366;53.176;6.540;2022-09-09T05:36:14;14.50;99.90
52451;DHT22;38366;53.176;6.540;2022-09-09T05:38:40;14.40;99.90
52451;DHT22;38366;53.176;6.540;2022-09-09T05:41:06;14.50;99.90
52451;DHT22;38366;53.176;6.540;2022-09-09T05:43:32;14.50;99.90
52451;DHT22;38366;53.176;6.540;2022-09-09T05:46:07;14.50;99.90
52451;DHT22;38366;53.176;6.540;2022-09-09T05:48:38;14.50;99.90
52451;DHT22;38366;53.176;6.540;2022-09-09T05:51:06;14.40;99.90
52451;DHT22;38366;53.176;6.540;2022-09-09T05:53:32;14.50;99.90
52451;DHT22;38366;53.176;6.540;2022-09-09T05:56:10;14.50;99.90
52451;DHT22;38366;53.176;6.540;2022-09-09T05:58:36;14.50;99.90
52451;DHT22;38366;53.176;6.540;2022-09-09T06:01:13;14.50;99.90
52451;DHT22;38366;53.176;6.540;2022-09-09T06:03:40;14.50;99.90
52451;DHT22;38366;53.176;6.540;2022-09-09T06:06:09;14.60;99.90
52451;DHT22;38366;53.176;6.540;2022-09-09T06:08:40;14.60;99.90
52451;DHT22;38366;53.176;6.540;2022-09-09T06:11:18;14.60;99.90
52451;DHT22;38366;53.176;6.540;2022-09-09T06:13:44;14.60;99.90
52451;DHT22;38366;53.176;6.540;2022-09-09T06:16:11;14.60;99.90
52451;DHT22;38366;53.176;6.540;2022-09-09T06:18:38;14.60;99.90
52451;DHT22;38366;53.176;6.540;2022-09-09T06:21:06;14.70;99.90
52451;DHT22;38366;53.176;6.540;2022-09-09T06:23:34;14.70;99.90
52451;DHT22;38366;53.176;6.540;2022-09-09T06:28:28;14.70;99.90
52451;DHT22;38366;53.176;6.540;2022-09-09T06:30:58;14.70;99.90
52451;DHT22;38366;53.176;6.540;2022-09-09T06:33:24;14.80;99.90
52451;DHT22;38366;53.176;6.540;2022-09-09T06:35:53;14.80;99.90
52451;DHT22;38366;53.176;6.540;2022-09-09T06:38:20;14.80;99.90
52451;DHT22;38366;53.176;6.540;2022-09-09T06:40:55;15.00;99.90
52451;DHT22;38366;53.176;6.540;2022-09-09T06:43:22;15.00;99.90
52451;DHT22;38366;53.176;6.540;2022-09-09T06:46:02;15.00;99.90
52451;DHT22;38366;53.176;6.540;2022-09-09T06:48:29;15.10;99.90
52451;DHT22;38366;53.176;6.540;2022-09-09T06:51:06;15.10;99.90
52451;DHT22;38366;53.176;6.540;2022-09-09T06:53:33;15.20;99.90
52451;DHT22;38366;53.176;6.540;2022-09-09T06:56:23;15.30;99.90
52451;DHT22;38366;53.176;6.540;2022-09-09T06:58:50;15.40;99.90
52451;DHT22;38366;53.176;6.540;2022-09-09T07:01:19;15.40;99.90
52451;DHT22;38366;53.176;6.540;2022-09-09T07:03:50;15.40;99.90
52451;DHT22;38366;53.176;6.540;2022-09-09T07:06:19;15.40;99.90
52451;DHT22;38366;53.176;6.540;2022-09-09T07:08:59;15.40;99.90
52451;DHT22;38366;53.176;6.540;2022-09-09T07:11:28;15.40;99.90
52451;DHT22;38366;53.176;6.540;2022-09-09T07:13:54;15.40;99.90
52451;DHT22;38366;53.176;6.540;2022-09-09T07:16:21;15.40;99.90
52451;DHT22;38366;53.176;6.540;2022-09-09T07:18:50;15.40;99.90
52451;DHT22;38366;53.176;6.540;2022-09-09T07:21:17;15.40;99.90
52451;DHT22;38366;53.176;6.540;2022-09-09T07:23:43;15.50;99.90
52451;DHT22;38366;53.176;6.540;2022-09-09T07:26:20;15.50;99.90
52451;DHT22;38366;53.176;6.540;2022-09-09T07:28:46;15.60;99.90
52451;DHT22;38366;53.176;6.540;2022-09-09T07:31:22;15.60;99.90
52451;DHT22;38366;53.176;6.540;2022-09-09T07:33:49;15.70;99.90
52451;DHT22;38366;53.176;6.540;2022-09-09T07:36:16;15.80;99.90
52451;DHT22;38366;53.176;6.540;2022-09-09T07:38:48;15.90;99.90
52451;DHT22;38366;53.176;6.540;2022-09-09T07:41:17;16.00;99.90
52451;DHT22;38366;53.176;6.540;2022-09-09T07:43:45;16.10;99.90
52451;DHT22;38366;53.176;6.540;2022-09-09T07:46:13;16.10;99.90
52451;DHT22;38366;53.176;6.540;2022-09-09T07:48:44;16.20;99.90
52451;DHT22;38366;53.176;6.540;2022-09-09T07:51:13;16.30;99.90
52451;DHT22;38366;53.176;6.540;2022-09-09T07:53:44;16.40;99.90
52451;DHT22;38366;53.176;6.540;2022-09-09T07:56:10;16.50;99.90
52451;DHT22;38366;53.176;6.540;2022-09-09T07:58:38;16.70;99.90
52451;DHT22;38366;53.176;6.540;2022-09-09T08:03:34;17.00;99.90
52451;DHT22;38366;53.176;6.540;2022-09-09T08:06:04;17.10;99.90
52451;DHT22;38366;53.176;6.540;2022-09-09T08:08:31;17.20;99.90
52451;DHT22;38366;53.176;6.540;2022-09-09T08:11:06;17.30;99.90
52451;DHT22;38366;53.176;6.540;2022-09-09T08:13:34;17.30;99.90
52451;DHT22;38366;53.176;6.540;2022-09-09T08:16:11;17.30;99.90
52451;DHT22;38366;53.176;6.540;2022-09-09T08:18:37;17.40;99.90
52451;DHT22;38366;53.176;6.540;2022-09-09T08:21:07;17.60;99.90
52451;DHT22;38366;53.176;6.540;2022-09-09T08:23:34;17.70;99.90
52451;DHT22;38366;53.176;6.540;2022-09-09T08:26:13;17.80;99.90
52451;DHT22;38366;53.176;6.540;2022-09-09T08:28:39;17.90;99.90
52451;DHT22;38366;53.176;6.540;2022-09-09T08:31:15;18.10;99.90
52451;DHT22;38366;53.176;6.540;2022-09-09T08:33:42;18.10;99.90
52451;DHT22;38366;53.176;6.540;2022-09-09T08:36:13;18.10;99.90
52451;DHT22;38366;53.176;6.540;2022-09-09T08:38:46;18.10;99.90
52451;DHT22;38366;53.176;6.540;2022-09-09T08:41:35;18.00;99.90
52451;DHT22;38366;53.176;6.540;2022-09-09T08:52:21;18.80;99.90
52451;DHT22;38366;53.176;6.540;2022-09-09T08:54:47;18.80;99.90
52451;DHT22;38366;53.176;6.540;2022-09-09T08:57:21;18.80;99.90
52451;DHT22;38366;53.176;6.540;2022-09-09T08:59:52;18.80;99.90
52451;DHT22;38366;53.176;6.540;2022-09-09T09:08:26;18.60;99.90
52451;DHT22;38366;53.176;6.540;2022-09-09T09:10:57;18.60;99.90
52451;DHT22;38366;53.176;6.540;2022-09-09T09:18:52;19.80;99.90
52451;DHT22;38366;53.176;6.540;2022-09-09T09:21:26;20.10;99.90
52451;DHT22;38366;53.176;6.540;2022-09-09T09:23:59;20.10;99.90
52451;DHT22;38366;53.176;6.540;2022-09-09T09:26:35;20.30;99.90
52451;DHT22;38366;53.176;6.540;2022-09-09T09:29:11;20.50;99.90
52451;DHT22;38366;53.176;6.540;2022-09-09T09:31:37;21.10;99.90
52451;DHT22;38366;53.176;6.540;2022-09-09T09:34:03;21.60;99.90
52451;DHT22;38366;53.176;6.540;2022-09-09T09:36:56;21.60;99.90
52451;DHT22;38366;53.176;6.540;2022-09-09T09:39:29;21.70;99.90
52451;DHT22;38366;53.176;6.540;2022-09-09T09:41:55;21.60;99.90
52451;DHT22;38366;53.176;6.540;2022-09-09T09:44:31;21.30;99.90
52451;DHT22;38366;53.176;6.540;2022-09-09T09:47:15;21.30;99.90
52451;DHT22;38366;53.176;6.540;2022-09-09T09:49:58;21.60;99.90
52451;DHT22;38366;53.176;6.540;2022-09-09T09:52:33;21.90;99.90
52451;DHT22;38366;53.176;6.540;2022-09-09T09:55:03;22.20;99.90
52451;DHT22;38366;53.176;6.540;2022-09-09T09:57:31;22.00;99.90
52451;DHT22;38366;53.176;6.540;2022-09-09T10:00:03;21.70;99.90
52451;DHT22;38366;53.176;6.540;2022-09-09T10:02:37;21.50;99.90
52451;DHT22;38366;53.176;6.540;2022-09-09T10:05:28;21.20;99.90
52451;DHT22;38366;53.176;6.540;2022-09-09T10:08:10;20.90;99.90
52451;DHT22;38366;53.176;6.540;2022-09-09T10:13:26;21.60;99.90
52451;DHT22;38366;53.176;6.540;2022-09-09T10:16:52;21.70;99.90
52451;DHT22;38366;53.176;6.540;2022-09-09T10:19:05;21.60;99.90
52451;DHT22;38366;53.176;6.540;2022-09-09T10:27:32;22.00;99.90
52451;DHT22;38366;53.176;6.540;2022-09-09T10:30:23;22.30;99.90
52451;DHT22;38366;53.176;6.540;2022-09-09T10:33:10;22.00;99.90
52451;DHT22;38366;53.176;6.540;2022-09-09T10:35:48;21.70;99.90
52451;DHT22;38366;53.176;6.540;2022-09-09T10:38:31;21.80;99.90
52451;DHT22;38366;53.176;6.540;2022-09-09T10:46:52;21.90;99.90
52451;DHT22;38366;53.176;6.540;2022-09-09T10:55:07;22.40;99.90
52451;DHT22;38366;53.176;6.540;2022-09-09T10:57:42;23.00;99.90
52451;DHT22;38366;53.176;6.540;2022-09-09T11:00:22;23.10;99.90
52451;DHT22;38366;53.176;6.540;2022-09-09T11:02:57;23.10;99.90
52451;DHT22;38366;53.176;6.540;2022-09-09T11:05:45;23.10;99.90
52451;DHT22;38366;53.176;6.540;2022-09-09T11:08:24;23.20;99.90
52451;DHT22;38366;53.176;6.540;2022-09-09T11:11:02;23.20;99.90
52451;DHT22;38366;53.176;6.540;2022-09-09T11:13:55;23.30;99.90
52451;DHT22;38366;53.176;6.540;2022-09-09T11:16:42;23.20;99.90
52451;DHT22;38366;53.176;6.540;2022-09-09T11:21:50;24.10;99.90
52451;DHT22;38366;53.176;6.540;2022-09-09T11:27:15;24.50;99.90
52451;DHT22;38366;53.176;6.540;2022-09-09T11:30:18;24.60;99.90
52451;DHT22;38366;53.176;6.540;2022-09-09T11:35:44;25.30;99.90
52451;DHT22;38366;53.176;6.540;2022-09-09T11:38:28;25.40;99.90
52451;DHT22;38366;53.176;6.540;2022-09-09T11:41:08;25.50;99.90
52451;DHT22;38366;53.176;6.540;2022-09-09T11:46:04;24.90;99.90
52451;DHT22;38366;53.176;6.540;2022-09-09T11:51:06;23.80;99.90
52451;DHT22;38366;53.176;6.540;2022-09-09T11:53:34;23.60;99.90
52451;DHT22;38366;53.176;6.540;2022-09-09T11:56:09;23.40;99.90
52451;DHT22;38366;53.176;6.540;2022-09-09T11:58:41;23.70;99.90
52451;DHT22;38366;53.176;6.540;2022-09-09T12:04:29;23.40;99.90
52451;DHT22;38366;53.176;6.540;2022-09-09T12:19:41;23.40;99.90
52451;DHT22;38366;53.176;6.540;2022-09-09T12:30:36;22.90;99.90
52451;DHT22;38366;53.176;6.540;2022-09-09T12:33:11;22.90;99.90
52451;DHT22;38366;53.176;6.540;2022-09-09T12:35:41;22.80;99.90
52451;DHT22;38366;53.176;6.540;2022-09-09T12:38:15;22.80;99.90
52451;DHT22;38366;53.176;6.540;2022-09-09T12:40:56;23.00;99.90
52451;DHT22;38366;53.176;6.540;2022-09-09T12:43:24;23.00;99.90
52451;DHT22;38366;53.176;6.540;2022-09-09T12:45:54;22.80;99.90
52451;DHT22;38366;53.176;6.540;2022-09-09T12:48:33;22.80;99.90
52451;DHT22;38366;53.176;6.540;2022-09-09T12:51:00;22.70;99.90
52451;DHT22;38366;53.176;6.540;2022-09-09T12:53:31;22.80;99.90
52451;DHT22;38366;53.176;6.540;2022-09-09T12:56:03;22.90;99.90
52451;DHT22;38366;53.176;6.540;2022-09-09T12:58:30;23.10;99.90
52451;DHT22;38366;53.176;6.540;2022-09-09T13:01:01;23.20;99.90
52451;DHT22;38366;53.176;6.540;2022-09-09T13:03:31;23.30;99.90
52451;DHT22;38366;53.176;6.540;2022-09-09T13:06:18;23.30;99.90
52451;DHT22;38366;53.176;6.540;2022-09-09T13:08:44;23.20;99.90
52451;DHT22;38366;53.176;6.540;2022-09-09T13:11:14;22.90;99.90
52451;DHT22;38366;53.176;6.540;2022-09-09T13:13:42;23.00;99.90
52451;DHT22;38366;53.176;6.540;2022-09-09T13:16:25;23.00;99.90
52451;DHT22;38366;53.176;6.540;2022-09-09T13:18:52;23.00;99.90
52451;DHT22;38366;53.176;6.540;2022-09-09T13:21:18;23.30;99.90
52451;DHT22;38366;53.176;6.540;2022-09-09T13:23:49;23.40;99.90
52451;DHT22;38366;53.176;6.540;2022-09-09T13:26:26;23.20;99.90
52451;DHT22;38366;53.176;6.540;2022-09-09T13:29:06;23.10;99.90
52451;DHT22;38366;53.176;6.540;2022-09-09T13:31:36;23.00;99.90
52451;DHT22;38366;53.176;6.540;2022-09-09T13:34:31;22.90;99.90
52451;DHT22;38366;53.176;6.540;2022-09-09T13:37:03;22.80;99.90
52451;DHT22;38366;53.176;6.540;2022-09-09T13:39:33;22.70;99.90
52451;DHT22;38366;53.176;6.540;2022-09-09T13:41:59;22.50;99.90
52451;DHT22;38366;53.176;6.540;2022-09-09T13:44:36;22.50;99.90
52451;DHT22;38366;53.176;6.540;2022-09-09T13:47:18;22.40;99.90
52451;DHT22;38366;53.176;6.540;2022-09-09T13:49:49;22.40;99.90
52451;DHT22;38366;53.176;6.540;2022-09-09T13:52:15;22.30;99.90
52451;DHT22;38366;53.176;6.540;2022-09-09T13:54:42;22.40;99.90
52451;DHT22;38366;53.176;6.540;2022-09-09T13:57:22;22.40;99.90
52451;DHT22;38366;53.176;6.540;2022-09-09T13:59:48;22.50;99.90
52451;DHT22;38366;53.176;6.540;2022-09-09T14:02:15;22.50;99.90
52451;DHT22;38366;53.176;6.540;2022-09-09T14:04:42;22.50;99.90
52451;DHT22;38366;53.176;6.540;2022-09-09T14:07:11;22.50;99.90
52451;DHT22;38366;53.176;6.540;2022-09-09T14:09:38;22.60;99.90
52451;DHT22;38366;53.176;6.540;2022-09-09T14:12:03;22.50;99.90
52451;DHT22;38366;53.176;6.540;2022-09-09T14:14:30;22.30;99.90
52451;DHT22;38366;53.176;6.540;2022-09-09T14:16:55;22.20;99.90
52451;DHT22;38366;53.176;6.540;2022-09-09T14:19:21;22.20;99.90
52451;DHT22;38366;53.176;6.540;2022-09-09T14:21:47;22.20;99.90
52451;DHT22;38366;53.176;6.540;2022-09-09T14:24:12;22.20;99.90
52451;DHT22;38366;53.176;6.540;2022-09-09T14:26:38;22.20;99.90
52451;DHT22;38366;53.176;6.540;2022-09-09T14:29:04;22.20;99.90
52451;DHT22;38366;53.176;6.540;2022-09-09T14:31:29;22.10;99.90
52451;DHT22;38366;53.176;6.540;2022-09-09T14:33:55;22.10;99.90
52451;DHT22;38366;53.176;6.540;2022-09-09T14:36:21;22.00;99.90
52451;DHT22;38366;53.176;6.540;2022-09-09T14:38:47;21.70;99.90
52451;DHT22;38366;53.176;6.540;2022-09-09T14:41:15;21.60;99.90
52451;DHT22;38366;53.176;6.540;2022-09-09T14:43:49;21.40;99.90
52451;DHT22;38366;53.176;6.540;2022-09-09T14:46:15;21.20;99.90
52451;DHT22;38366;53.176;6.540;2022-09-09T14:48:41;21.10;99.90
52451;DHT22;38366;53.176;6.540;2022-09-09T14:51:08;20.90;99.90
52451;DHT22;38366;53.176;6.540;2022-09-09T14:53:34;20.90;99.90
52451;DHT22;38366;53.176;6.540;2022-09-09T14:56:05;20.90;99.90
52451;DHT22;38366;53.176;6.540;2022-09-09T14:58:31;20.90;99.90
52451;DHT22;38366;53.176;6.540;2022-09-09T15:01:18;20.80;99.90
52451;DHT22;38366;53.176;6.540;2022-09-09T15:03:50;20.90;99.90
52451;DHT22;38366;53.176;6.540;2022-09-09T15:06:16;21.00;99.90
52451;DHT22;38366;53.176;6.540;2022-09-09T15:08:43;21.00;99.90
52451;DHT22;38366;53.176;6.540;2022-09-09T15:11:11;21.20;99.90
52451;DHT22;38366;53.176;6.540;2022-09-09T15:13:38;21.30;99.90
52451;DHT22;38366;53.176;6.540;2022-09-09T15:16:12;21.40;99.90
52451;DHT22;38366;53.176;6.540;2022-09-09T15:18:38;21.60;99.90
52451;DHT22;38366;53.176;6.540;2022-09-09T15:21:16;21.60;99.90
52451;DHT22;38366;53.176;6.540;2022-09-09T15:23:42;21.60;99.90
52451;DHT22;38366;53.176;6.540;2022-09-09T15:26:08;21.60;99.90
52451;DHT22;38366;53.176;6.540;2022-09-09T15:28:36;21.50;99.90
52451;DHT22;38366;53.176;6.540;2022-09-09T15:31:11;21.30;99.90
52451;DHT22;38366;53.176;6.540;2022-09-09T15:33:40;21.30;99.90
52451;DHT22;38366;53.176;6.540;2022-09-09T15:38:41;21.30;99.90
52451;DHT22;38366;53.176;6.540;2022-09-09T15:41:07;21.30;99.90
52451;DHT22;38366;53.176;6.540;2022-09-09T15:43:33;21.30;99.90
52451;DHT22;38366;53.176;6.540;2022-09-09T15:46:24;21.20;99.90
52451;DHT22;38366;53.176;6.540;2022-09-09T15:51:36;21.20;99.90
52451;DHT22;38366;53.176;6.540;2022-09-09T15:54:03;21.20;99.90
52451;DHT22;38366;53.176;6.540;2022-09-09T15:56:30;21.10;99.90
52451;DHT22;38366;53.176;6.540;2022-09-09T15:58:56;21.10;99.90
52451;DHT22;38366;53.176;6.540;2022-09-09T16:01:23;21.10;99.90
52451;DHT22;38366;53.176;6.540;2022-09-09T16:03:49;21.10;99.90
52451;DHT22;38366;53.176;6.540;2022-09-09T16:06:20;21.00;99.90
52451;DHT22;38366;53.176;6.540;2022-09-09T16:08:48;20.90;99.90
52451;DHT22;38366;53.176;6.540;2022-09-09T16:11:19;20.80;99.90
52451;DHT22;38366;53.176;6.540;2022-09-09T16:13:47;20.80;99.90
52451;DHT22;38366;53.176;6.540;2022-09-09T16:16:15;20.70;99.90
52451;DHT22;38366;53.176;6.540;2022-09-09T16:18:48;20.60;99.90
52451;DHT22;38366;53.176;6.540;2022-09-09T16:21:20;20.40;99.90
52451;DHT22;38366;53.176;6.540;2022-09-09T16:23:46;20.40;99.90
52451;DHT22;38366;53.176;6.540;2022-09-09T16:26:15;20.40;99.90
52451;DHT22;38366;53.176;6.540;2022-09-09T16:28:41;20.40;99.90
52451;DHT22;38366;53.176;6.540;2022-09-09T16:31:08;20.40;99.90
52451;DHT22;38366;53.176;6.540;2022-09-09T16:33:36;20.40;99.90
52451;DHT22;38366;53.176;6.540;2022-09-09T16:36:11;20.40;99.90
52451;DHT22;38366;53.176;6.540;2022-09-09T16:38:37;20.40;99.90
52451;DHT22;38366;53.176;6.540;2022-09-09T16:41:04;20.30;99.90
52451;DHT22;38366;53.176;6.540;2022-09-09T16:43:31;20.20;99.90
52451;DHT22;38366;53.176;6.540;2022-09-09T16:45:57;20.10;99.90
52451;DHT22;38366;53.176;6.540;2022-09-09T16:48:27;20.00;99.90
52451;DHT22;38366;53.176;6.540;2022-09-09T16:50:52;19.90;99.90
52451;DHT22;38366;53.176;6.540;2022-09-09T16:53:18;19.90;99.90
52451;DHT22;38366;53.176;6.540;2022-09-09T16:55:44;19.90;99.90
52451;DHT22;38366;53.176;6.540;2022-09-09T16:58:13;19.80;99.90
52451;DHT22;38366;53.176;6.540;2022-09-09T17:00:38;19.80;99.90
52451;DHT22;38366;53.176;6.540;2022-09-09T17:03:04;19.70;99.90
52451;DHT22;38366;53.176;6.540;2022-09-09T17:05:30;19.60;99.90
52451;DHT22;38366;53.176;6.540;2022-09-09T17:07:58;19.50;99.90
52451;DHT22;38366;53.176;6.540;2022-09-09T17:10:24;19.30;99.90
52451;DHT22;38366;53.176;6.540;2022-09-09T17:12:50;19.20;99.90
52451;DHT22;38366;53.176;6.540;2022-09-09T17:15:16;19.10;99.90
52451;DHT22;38366;53.176;6.540;2022-09-09T17:17:43;19.10;99.90
52451;DHT22;38366;53.176;6.540;2022-09-09T17:20:10;19.10;99.90
52451;DHT22;38366;53.176;6.540;2022-09-09T17:22:36;19.10;99.90
52451;DHT22;38366;53.176;6.540;2022-09-09T17:25:02;19.10;99.90
52451;DHT22;38366;53.176;6.540;2022-09-09T17:27:31;19.10;99.90
52451;DHT22;38366;53.176;6.540;2022-09-09T17:29:57;19.10;99.90
52451;DHT22;38366;53.176;6.540;2022-09-09T17:32:24;19.10;99.90
52451;DHT22;38366;53.176;6.540;2022-09-09T17:34:50;19.00;99.90
52451;DHT22;38366;53.176;6.540;2022-09-09T17:37:18;19.10;99.90
52451;DHT22;38366;53.176;6.540;2022-09-09T17:39:44;19.00;99.90
52451;DHT22;38366;53.176;6.540;2022-09-09T17:42:09;18.80;99.90
52451;DHT22;38366;53.176;6.540;2022-09-09T17:44:35;18.90;99.90
52451;DHT22;38366;53.176;6.540;2022-09-09T17:47:01;18.90;99.90
52451;DHT22;38366;53.176;6.540;2022-09-09T17:49:29;18.90;99.90
52451;DHT22;38366;53.176;6.540;2022-09-09T17:51:55;18.90;99.90
52451;DHT22;38366;53.176;6.540;2022-09-09T17:54:21;18.90;99.90
52451;DHT22;38366;53.176;6.540;2022-09-09T17:56:47;18.80;99.90